• Join FlightAware (Why Join?)
  • Login
  • US Flag 
01:13AM EDT


 

Airport Tracker/Info


-or-


 

Live Flight TrackerFlight Track Log ✈ FLG3613 ✈ 22-Jun-2013 ✈ KCHS - KATL

Flight Track Log - Related Links

Times and Time Zones

All times are in EDT time to prevent confusion due to time zone crossing. See the FLG3613 flight status page for this flight to view local times or setup timezone preferences in your user account.

Time Position Orientation Groundspeed Altitude Reporting Facility
EDT Latitude Longitude Course Direction KTS MPH feet Rate Location/Type
04:48PM 32.9269 -80.0961 281° West 218 251 3,000  Level Jacksonville Center
04:49PM 32.9222 -80.1681 266° West 232 267 5,800 2,400 Climbing Jacksonville Center
04:50PM 32.9114 -80.2525 261° West 249 287 7,900 2,220 Climbing Jacksonville Center
04:51PM 32.9008 -80.3467 262° West 268 308 10,300 1,680 Climbing Jacksonville Center
04:52PM 32.8861 -80.4511 260° West 301 346 11,300 1,200 Climbing Jacksonville Center
04:53PM 32.8717 -80.5678 262° West 336 387 12,800 1,500 Climbing Jacksonville Center
04:54PM 32.8569 -80.6842 261° West 356 410 14,400 1,500 Climbing Jacksonville Center
04:55PM 32.8425 -80.8033 262° West 363 418 15,900 1,500 Climbing Jacksonville Center
04:56PM 32.8256 -80.9247 261° West 373 429 17,400 1,200 Climbing Jacksonville Center
04:57PM 32.8086 -81.0464 261° West 373 429 18,400 1,020 Climbing Jacksonville Center
04:58PM 32.7936 -81.1725 262° West 378 435 19,500 840 Climbing Jacksonville Center
04:59PM 32.7767 -81.3014 261° West 383 441 20,100 960 Climbing Jacksonville Center
05:00PM 32.7947 -81.4247 280° West 389 448 21,500 540 Climbing Jacksonville Center
05:02PM 32.8642 -81.7142 286° West 388 447 22,000 120 Climbing Atlanta Center
05:03PM 32.8875 -81.8472 282° West 410 472 22,000  Level Atlanta Center
05:04PM 32.9086 -81.9828 281° West 410 472 22,000  Level Atlanta Center
05:05PM 32.9339 -82.1158 283° West 415 478 22,000  Level Atlanta Center
05:06PM 32.9567 -82.2539 281° West 420 483 22,000  Level Atlanta Center
05:07PM 32.9817 -82.3944 282° West 425 489 22,000  Level Atlanta Center
05:08PM 33.0022 -82.5281 280° West 430 495 22,000  Level Atlanta Center
05:09PM 33.0289 -82.6711 283° West 430 495 22,000  Level Atlanta Center
05:10PM 33.0492 -82.8047 280° West 430 495 22,000  Level Atlanta Center
05:11PM 33.0733 -82.9406 282° West 430 495 22,000  Level Atlanta Center
05:12PM 33.0953 -83.0767 281° West 430 495 22,000  Level Atlanta Center
05:13PM 33.1172 -83.2253 280° West 425 489 22,000 -540 Level Atlanta Center
05:14PM 33.1433 -83.3664 282° West 431 496 21,000 -1,080 Descending Atlanta Center
05:15PM 33.1628 -83.5103 279° West 431 496 19,900 -1,860 Descending Atlanta Center
05:16PM 33.1883 -83.6417 283° West 431 496 17,300 -2,700 Descending Atlanta Center
05:17PM 33.2075 -83.7681 280° West 407 468 14,600 -1,860 Descending Atlanta Center
05:18PM 33.2500 -83.8500 302° West 383 441 14,000 -780 Descending Atlanta TRACON
05:19PM 33.3167 -83.9500 309° West 381 438 13,300 -900 Descending Atlanta TRACON
05:20PM 33.3833 -84.0500 309° West 383 441 12,300 -660 Descending Atlanta TRACON
05:21PM 33.4500 -84.1500 309° West 377 434 12,000 -180 Descending Atlanta TRACON
05:22PM 33.5167 -84.2500 309° West 344 396 12,000 -300 Level Atlanta TRACON
05:23PM 33.5500 -84.3333 296° West 282 325 11,500 -900 Descending Atlanta TRACON
05:24PM 33.5500 -84.4167 270° West 265 305 10,300 -1,500 Descending Atlanta TRACON
05:25PM 33.5500 -84.5000 270° West 260 299 8,600 -1,920 Descending Atlanta TRACON
05:26PM 33.5500 -84.5833 270° West 237 273 6,500 -2,280 Descending Atlanta TRACON
05:27PM 33.5833 -84.6500 301° West 248 285 3,900 -1,800 Descending Atlanta TRACON
05:28PM 33.6167 -84.6000 51° Northeast 225 259 3,000 -1,020 Descending Atlanta TRACON